createdAt,value
2022-11-16T00:02:35.350Z,33.83
2022-11-16T00:22:37.471Z,40.20
2022-11-16T00:42:39.529Z,38.95
2022-11-16T01:02:41.500Z,33.35
2022-11-16T01:22:43.234Z,41.42
2022-11-16T01:42:45.534Z,35.13
2022-11-16T02:02:47.622Z,37.20
2022-11-16T02:23:03.707Z,41.20
2022-11-16T02:43:08.368Z,30.88
2022-11-16T03:03:10.549Z,29.55
2022-11-16T03:23:12.769Z,31.58
2022-11-16T03:43:17.210Z,28.92
2022-11-16T04:03:19.566Z,32.45
2022-11-16T04:23:23.031Z,38.33
2022-11-16T04:43:26.130Z,36.55
2022-11-16T05:03:28.104Z,32.28
2022-11-16T05:23:30.803Z,31.65
2022-11-16T05:43:37.369Z,33.45
2022-11-16T06:03:55.539Z,32.90
2022-11-16T06:44:22.309Z,27.50
2022-11-16T07:04:32.811Z,30.95
2022-11-16T07:24:35.595Z,28.90
2022-11-16T07:44:38.539Z,26.58
2022-11-16T08:04:46.444Z,26.42
2022-11-16T08:24:48.667Z,25.10
2022-11-16T08:44:51.534Z,23.23
2022-11-16T09:05:00.655Z,25.38
2022-11-16T09:25:02.807Z,22.55
2022-11-16T09:45:04.698Z,18.75
2022-11-16T10:05:07.106Z,22.58
2022-11-16T10:25:08.793Z,20.75
2022-11-16T10:45:10.615Z,17.55
2022-11-16T11:05:12.036Z,14.85
2022-11-16T11:25:14.362Z,14.02
2022-11-16T11:45:15.786Z,14.40
2022-11-16T12:05:17.799Z,15.55
2022-11-16T12:25:19.946Z,15.55
2022-11-16T12:45:22.002Z,14.60
2022-11-16T13:05:23.440Z,13.43
2022-11-16T13:25:26.013Z,14.07
2022-11-16T13:45:27.594Z,12.60
2022-11-16T14:05:29.715Z,13.38
2022-11-16T14:25:31.181Z,13.32
2022-11-16T14:45:33.451Z,13.20
2022-11-16T15:05:35.187Z,12.68
2022-11-16T15:25:37.171Z,14.15
2022-11-16T15:45:38.979Z,14.38
2022-11-16T16:05:40.863Z,14.88
2022-11-16T16:25:47.526Z,17.05
2022-11-16T16:45:52.240Z,17.67
2022-11-16T17:05:53.675Z,18.55
2022-11-16T17:25:56.066Z,17.80
2022-11-16T17:45:57.624Z,18.13
2022-11-16T18:06:00.019Z,21.42
2022-11-16T18:26:01.507Z,20.33
2022-11-16T18:46:03.623Z,21.65
2022-11-16T19:06:05.453Z,20.52
2022-11-16T19:26:07.649Z,17.08
2022-11-16T19:46:09.276Z,21.35
2022-11-16T20:06:11.611Z,20.77
2022-11-16T20:26:13.229Z,20.42
2022-11-16T20:46:15.219Z,21.33
2022-11-16T21:06:17.396Z,20.52
2022-11-16T21:26:19.523Z,20.45
2022-11-16T21:46:21.198Z,23.25
2022-11-16T22:06:23.553Z,22.17
2022-11-16T22:26:25.223Z,24.45
2022-11-16T22:46:27.493Z,25.00
2022-11-16T23:06:29.284Z,24.90
2022-11-16T23:26:31.478Z,22.85
2022-11-16T23:46:33.108Z,21.48
